Time;durP1;ratioP1;P1;durP2;ratioP2;P2;SDS_P1;SDS_P2;PMS_P1;PMS_P2;Temp;Humidity;BMP_temperature;BMP_pressure;BME280_temperature;BME280_humidity;BME280_pressure;Samples;Min_cycle;Max_cycle;Signal;HPM_P1;HPM_P2
2021/06/13 16:42:17;;;;;;;15.33;4.60;;;21.10;28.20;;;;;;5111893;27;20555;-80
2021/06/13 16:44:43;;;;;;;6.20;3.87;;;21.10;28.80;;;;;;5113648;28;20440;-81
2021/06/13 16:47:12;;;;;;;4.60;4.30;;;21.10;28.70;;;;;;5116817;28;20182;-81
2021/06/13 16:49:45;;;;;;;4.23;3.83;;;21.20;28.90;;;;;;5096454;28;20424;-81
2021/06/13 16:52:11;;;;;;;4.37;3.80;;;21.20;29.00;;;;;;5111214;28;20981;-79
2021/06/13 16:54:37;;;;;;;3.80;3.50;;;21.20;28.70;;;;;;5103956;28;20826;-79
2021/06/13 16:57:04;;;;;;;4.10;3.37;;;21.30;28.00;;;;;;5089985;28;20906;-79
2021/06/13 16:59:34;;;;;;;4.00;3.70;;;21.30;28.20;;;;;;5106092;28;20417;-80
2021/06/13 17:02:04;;;;;;;6.50;3.93;;;21.30;27.50;;;;;;5090936;28;20419;-79
2021/06/13 17:04:45;;;;;;;4.30;3.90;;;21.30;28.00;;;;;;5104769;28;20455;-79
2021/06/13 17:07:23;;;;;;;4.73;3.63;;;21.40;28.40;;;;;;5089521;28;20458;-79
2021/06/13 17:09:50;;;;;;;4.77;3.80;;;21.40;27.80;;;;;;5105933;28;20460;-79
2021/06/13 17:12:20;;;;;;;7.80;4.50;;;21.40;27.10;;;;;;5106213;28;21018;-79
2021/06/13 17:14:46;;;;;;;4.30;3.60;;;21.40;27.60;;;;;;5105044;28;20490;-79
2021/06/13 17:17:13;;;;;;;3.90;3.60;;;21.40;28.20;;;;;;5105324;28;20787;-79
2021/06/13 17:19:45;;;;;;;4.60;3.30;;;21.40;28.40;;;;;;5105407;28;20452;-79
2021/06/13 17:22:17;;;;;;;4.17;3.77;;;21.40;28.50;;;;;;5087926;28;20918;-79
2021/06/13 17:24:45;;;;;;;6.13;5.20;;;21.40;28.60;;;;;;5105351;28;20825;-79
2021/06/13 17:27:24;;;;;;;4.53;4.23;;;21.40;28.70;;;;;;5105720;28;20474;-79
2021/06/13 17:29:58;;;;;;;4.13;3.83;;;21.50;28.60;;;;;;5105530;28;20424;-79
2021/06/13 17:32:26;;;;;;;4.63;4.20;;;21.50;28.70;;;;;;5105873;28;20434;-79
2021/06/13 17:35:24;;;;;;;3.77;3.47;;;21.50;28.70;;;;;;5090026;28;20417;-79
2021/06/13 17:38:19;;;;;;;4.57;3.60;;;21.50;28.80;;;;;;5074912;28;21017;-79
2021/06/13 17:40:44;;;;;;;3.80;3.60;;;21.50;28.90;;;;;;5108975;28;20443;-79
2021/06/13 17:43:10;;;;;;;4.30;3.27;;;21.50;28.70;;;;;;5108868;28;20458;-79
2021/06/13 17:45:36;;;;;;;3.83;3.63;;;21.40;28.60;;;;;;5108253;28;20232;-79
2021/06/13 17:48:02;;;;;;;3.33;3.00;;;21.50;28.50;;;;;;5108437;28;20178;-78
2021/06/13 17:50:27;;;;;;;3.20;3.00;;;21.50;27.80;;;;;;5108469;28;20204;-78
2021/06/13 17:52:53;;;;;;;4.60;4.30;;;21.50;28.00;;;;;;5100114;28;20429;-79
2021/06/13 17:55:19;;;;;;;5.37;4.83;;;21.50;28.30;;;;;;5094954;28;20198;-79
2021/06/13 17:57:44;;;;;;;13.63;9.97;;;21.50;28.50;;;;;;5095044;28;20207;-78
2021/06/13 18:00:11;;;;;;;25.77;22.93;;;21.50;28.00;;;;;;5094004;28;20417;-77
2021/06/13 18:02:36;;;;;;;34.93;27.67;;;21.50;28.40;;;;;;5095286;28;20196;-78
2021/06/13 18:05:03;;;;;;;19.67;15.77;;;21.50;28.20;;;;;;5095461;28;20409;-78
2021/06/13 18:07:28;;;;;;;18.77;16.70;;;21.50;25.90;;;;;;5095253;28;20178;-79
2021/06/13 18:09:54;;;;;;;18.27;15.80;;;21.50;27.10;;;;;;5095681;28;20412;-78
2021/06/13 18:12:23;;;;;;;15.60;13.67;;;21.50;28.20;;;;;;5095666;28;20641;-79
2021/06/13 18:14:48;;;;;;;20.97;11.67;;;21.50;28.10;;;;;;5093913;28;20273;-79
2021/06/13 18:17:14;;;;;;;11.50;10.33;;;21.60;26.90;;;;;;5096446;28;20440;-79
2021/06/13 18:19:40;;;;;;;14.60;10.60;;;21.60;27.30;;;;;;5094041;28;20657;-79
2021/06/13 18:22:05;;;;;;;14.70;11.67;;;21.50;27.70;;;;;;5095856;28;20174;-78
2021/06/13 18:24:31;;;;;;;13.00;10.97;;;21.50;28.20;;;;;;5093816;28;20205;-78
2021/06/13 18:26:57;;;;;;;13.53;10.90;;;21.50;28.30;;;;;;5093429;28;20633;-78
2021/06/13 18:29:22;;;;;;;11.80;10.60;;;21.50;28.20;;;;;;5073833;28;20225;-77
2021/06/13 18:31:48;;;;;;;10.33;9.23;;;21.50;28.40;;;;;;5074118;28;20202;-77
2021/06/13 18:34:13;;;;;;;13.23;9.20;;;21.50;26.90;;;;;;5077764;28;20199;-77
2021/06/13 18:36:40;;;;;;;11.87;10.00;;;21.60;28.10;;;;;;5092332;28;20173;-77
2021/06/13 18:39:06;;;;;;;10.47;9.37;;;21.50;27.80;;;;;;5094306;28;20235;-77
2021/06/13 18:41:31;;;;;;;13.60;8.60;;;21.50;28.00;;;;;;5094726;28;20549;-78
2021/06/13 18:43:57;;;;;;;9.57;8.77;;;21.60;28.40;;;;;;5094566;28;20273;-78
2021/06/13 18:46:22;;;;;;;9.97;8.80;;;21.60;28.60;;;;;;5094171;28;20671;-77
2021/06/13 18:48:48;;;;;;;11.30;9.03;;;21.50;28.70;;;;;;5094445;28;20205;-77
2021/06/13 18:51:14;;;;;;;13.10;8.73;;;21.60;28.80;;;;;;5094275;28;20191;-78
2021/06/13 18:53:50;;;;;;;9.33;7.37;;;21.50;29.00;;;;;;5092003;28;20205;-77
2021/06/13 18:56:21;;;;;;;8.77;7.87;;;21.60;28.90;;;;;;5094069;28;20644;-77
2021/06/13 18:58:48;;;;;;;9.40;8.27;;;21.60;29.00;;;;;;5092270;28;20416;-77
2021/06/13 19:01:15;;;;;;;8.60;7.70;;;21.50;29.10;;;;;;5092605;28;20416;-77
2021/06/13 19:03:41;;;;;;;8.23;6.60;;;21.60;29.40;;;;;;5092783;28;20523;-77
2021/06/13 19:06:07;;;;;;;7.77;6.97;;;21.50;29.20;;;;;;5093315;28;20405;-76
2021/06/13 19:08:32;;;;;;;7.77;6.97;;;21.60;29.30;;;;;;5092356;28;20423;-76
2021/06/13 19:10:58;;;;;;;8.43;7.53;;;21.60;29.20;;;;;;5092454;28;20202;-76
2021/06/13 19:13:23;;;;;;;10.10;7.80;;;21.50;29.20;;;;;;5092271;28;20194;-76
2021/06/13 19:15:49;;;;;;;11.00;6.63;;;21.60;29.40;;;;;;5093197;28;20175;-76
2021/06/13 19:18:15;;;;;;;7.13;6.47;;;21.50;29.30;;;;;;5094015;28;20171;-77
2021/06/13 19:20:40;;;;;;;6.67;5.90;;;21.50;29.40;;;;;;5094620;28;20274;-77
2021/06/13 19:23:07;;;;;;;6.67;6.10;;;21.50;29.40;;;;;;5094277;28;20186;-77
2021/06/13 19:25:33;;;;;;;6.97;6.37;;;21.50;29.30;;;;;;5093315;28;20175;-76
2021/06/13 19:28:00;;;;;;;9.70;6.03;;;21.50;27.30;;;;;;5093663;28;20934;-77
2021/06/13 19:30:28;;;;;;;6.90;6.30;;;21.50;28.70;;;;;;5093118;28;20463;-76
2021/06/13 19:32:54;;;;;;;5.50;5.00;;;21.50;28.90;;;;;;5093126;28;20424;-77
2021/06/13 19:35:21;;;;;;;5.30;4.80;;;21.50;27.40;;;;;;5092869;28;20411;-77
2021/06/13 19:37:48;;;;;;;5.70;5.20;;;21.50;28.00;;;;;;5092933;28;20409;-78
2021/06/13 19:40:14;;;;;;;5.33;4.80;;;21.50;27.90;;;;;;5088972;28;20432;-78
2021/06/13 19:42:41;;;;;;;5.07;4.67;;;21.50;26.90;;;;;;5093219;28;20432;-79
2021/06/13 19:45:07;;;;;;;5.07;4.67;;;21.50;26.00;;;;;;5094107;28;20850;-79
2021/06/13 19:47:33;;;;;;;4.43;4.03;;;21.50;25.90;;;;;;5094453;28;20415;-79
2021/06/13 19:49:59;;;;;;;4.37;3.97;;;21.50;26.20;;;;;;5086971;28;20470;-78
2021/06/13 19:52:24;;;;;;;5.40;4.70;;;21.50;26.70;;;;;;5087149;28;20213;-76
2021/06/13 19:54:50;;;;;;;5.77;5.30;;;21.40;26.10;;;;;;5092511;28;20220;-77
2021/06/13 19:57:16;;;;;;;4.20;3.90;;;21.40;26.80;;;;;;5092323;28;20635;-77
2021/06/13 19:59:42;;;;;;;4.93;4.43;;;21.50;26.30;;;;;;5081801;28;20192;-78
2021/06/13 20:02:08;;;;;;;4.50;4.20;;;21.50;26.70;;;;;;5091790;28;20175;-77
2021/06/13 20:04:35;;;;;;;6.33;5.30;;;21.50;26.70;;;;;;5086957;28;20440;-78
2021/06/13 20:07:02;;;;;;;5.80;5.30;;;21.40;26.40;;;;;;5092383;28;20534;-78
2021/06/13 20:09:28;;;;;;;4.80;4.40;;;21.50;27.60;;;;;;5092910;28;20416;-77
2021/06/13 20:11:54;;;;;;;4.17;3.77;;;21.50;26.80;;;;;;5092933;28;20554;-78
2021/06/13 20:14:20;;;;;;;4.80;4.27;;;21.40;26.10;;;;;;5092598;28;20214;-78
2021/06/13 20:16:45;;;;;;;5.80;4.83;;;21.40;26.80;;;;;;5091607;28;20200;-78
2021/06/13 20:19:13;;;;;;;5.53;5.07;;;21.40;26.80;;;;;;5093470;28;20408;-78
2021/06/13 20:21:38;;;;;;;3.83;3.40;;;21.40;27.30;;;;;;5092739;28;20675;-78
2021/06/13 20:24:04;;;;;;;4.43;4.03;;;21.40;26.70;;;;;;5090398;28;20448;-79
2021/06/13 20:26:30;;;;;;;4.60;4.20;;;21.40;26.10;;;;;;5088405;28;20182;-78
2021/06/13 20:28:55;;;;;;;3.83;3.60;;;21.40;26.90;;;;;;5092730;28;20822;-78
2021/06/13 20:31:21;;;;;;;4.50;4.20;;;21.40;26.40;;;;;;5089029;28;20221;-78
2021/06/13 20:33:47;;;;;;;4.00;3.70;;;21.40;26.80;;;;;;5092152;28;20226;-77
2021/06/13 20:36:14;;;;;;;4.40;4.10;;;21.40;27.10;;;;;;5087072;28;20178;-77
2021/06/13 20:38:39;;;;;;;4.83;4.27;;;21.40;27.10;;;;;;5092142;28;20235;-77
2021/06/13 20:41:06;;;;;;;4.60;4.20;;;21.40;27.00;;;;;;5092192;28;20440;-76
2021/06/13 20:43:32;;;;;;;4.47;4.07;;;21.40;27.80;;;;;;5091998;28;20285;-76
2021/06/13 20:45:59;;;;;;;4.67;4.37;;;21.40;27.90;;;;;;5090011;28;20421;-76
2021/06/13 20:48:26;;;;;;;5.00;4.60;;;21.40;28.20;;;;;;5082586;28;20421;-76
2021/06/13 20:50:55;;;;;;;4.10;3.80;;;21.40;28.30;;;;;;5091875;28;20467;-77
2021/06/13 20:53:22;;;;;;;5.20;4.80;;;21.50;28.40;;;;;;5091328;28;20436;-76
2021/06/13 20:55:49;;;;;;;4.40;4.10;;;21.50;28.50;;;;;;5091937;28;20465;-75
2021/06/13 20:58:17;;;;;;;4.07;3.70;;;21.50;29.30;;;;;;5091936;28;20428;-76
2021/06/13 21:00:43;;;;;;;4.73;4.17;;;21.50;28.90;;;;;;5092020;28;20526;-77
2021/06/13 21:03:09;;;;;;;4.50;4.10;;;21.50;28.90;;;;;;5092255;28;20436;-77
2021/06/13 21:05:34;;;;;;;4.50;4.10;;;21.50;28.90;;;;;;5092059;28;20454;-76
2021/06/13 21:08:00;;;;;;;4.90;4.13;;;21.50;29.10;;;;;;5091992;28;20178;-76
2021/06/13 21:10:27;;;;;;;5.00;4.53;;;21.50;29.10;;;;;;5092330;28;20565;-77
2021/06/13 21:12:55;;;;;;;4.60;4.20;;;21.50;29.20;;;;;;5091704;28;20244;-76
2021/06/13 21:15:22;;;;;;;4.50;3.57;;;21.50;29.10;;;;;;5091256;28;20413;-77
2021/06/13 21:17:48;;;;;;;4.40;4.10;;;21.50;29.30;;;;;;5093133;28;20397;-78
2021/06/13 21:20:15;;;;;;;3.60;3.40;;;21.50;29.40;;;;;;5092934;28;20401;-78
2021/06/13 21:22:40;;;;;;;4.83;3.97;;;21.50;29.50;;;;;;5092981;28;20407;-77
2021/06/13 21:25:07;;;;;;;3.93;3.63;;;21.50;29.50;;;;;;5093561;28;20615;-78
2021/06/13 21:27:33;;;;;;;7.83;3.80;;;21.50;29.50;;;;;;5095307;28;20174;-77
2021/06/13 21:29:59;;;;;;;3.70;3.50;;;21.50;29.60;;;;;;5096208;28;20408;-77
2021/06/13 21:32:25;;;;;;;4.57;4.27;;;21.50;29.70;;;;;;5095715;28;20228;-76
2021/06/13 21:34:51;;;;;;;4.67;3.57;;;21.50;29.80;;;;;;5089849;28;20194;-76
2021/06/13 21:37:16;;;;;;;4.30;3.70;;;21.60;29.90;;;;;;5092219;28;20511;-76
2021/06/13 21:39:42;;;;;;;4.20;3.90;;;21.50;30.00;;;;;;5093754;28;20570;-76
2021/06/13 21:42:08;;;;;;;4.00;3.67;;;21.60;30.10;;;;;;5094645;28;20289;-76
2021/06/13 21:44:34;;;;;;;3.53;3.33;;;21.60;30.40;;;;;;5094912;28;20511;-76
2021/06/13 21:47:00;;;;;;;4.10;3.30;;;21.60;30.40;;;;;;5094608;28;20182;-76
2021/06/13 21:49:25;;;;;;;10.23;3.90;;;21.50;30.40;;;;;;5093603;28;20171;-75
2021/06/13 21:51:51;;;;;;;4.73;3.80;;;21.50;30.50;;;;;;5091354;28;20491;-75
2021/06/13 21:54:17;;;;;;;4.50;4.10;;;21.50;30.70;;;;;;5088546;28;20708;-75
2021/06/13 21:56:42;;;;;;;6.10;3.83;;;21.50;30.70;;;;;;5092941;28;20175;-76
2021/06/13 21:59:08;;;;;;;8.90;4.23;;;21.50;31.00;;;;;;5094258;28;20179;-76
2021/06/13 22:01:34;;;;;;;4.47;4.10;;;21.50;31.20;;;;;;5093557;28;20223;-76
2021/06/13 22:04:00;;;;;;;3.93;3.60;;;21.50;31.30;;;;;;5093804;28;20198;-76
2021/06/13 22:06:26;;;;;;;5.33;3.53;;;21.50;31.20;;;;;;5093712;28;20405;-76
2021/06/13 22:08:52;;;;;;;4.47;4.00;;;21.50;31.20;;;;;;5094873;28;20177;-75
2021/06/13 22:11:18;;;;;;;5.27;4.30;;;21.40;31.10;;;;;;5094453;28;20444;-75
2021/06/13 22:13:44;;;;;;;4.37;4.00;;;21.50;31.20;;;;;;5094658;28;20190;-76
2021/06/13 22:16:11;;;;;;;3.67;3.37;;;21.50;31.20;;;;;;5094363;28;20404;-76
2021/06/13 22:18:38;;;;;;;3.57;3.37;;;21.40;31.10;;;;;;5094731;28;20249;-76
2021/06/13 22:21:04;;;;;;;4.20;3.80;;;21.50;31.50;;;;;;5094527;28;20487;-75
2021/06/13 22:23:30;;;;;;;4.80;3.57;;;21.40;31.60;;;;;;5094639;28;20490;-76
2021/06/13 22:25:56;;;;;;;4.00;3.57;;;21.40;31.80;;;;;;5094175;28;20828;-76
2021/06/13 22:28:22;;;;;;;5.83;3.40;;;21.50;32.00;;;;;;5094535;28;20166;-76
2021/06/13 22:30:48;;;;;;;4.00;3.70;;;21.40;32.00;;;;;;5094126;28;20707;-76
2021/06/13 22:33:14;;;;;;;5.97;3.90;;;21.40;32.10;;;;;;5094415;28;20277;-76
2021/06/13 22:35:39;;;;;;;4.00;3.40;;;21.40;33.10;;;;;;5094118;28;20448;-76
2021/06/13 22:38:05;;;;;;;3.97;3.63;;;21.40;32.40;;;;;;5094295;28;20181;-75
2021/06/13 22:40:31;;;;;;;7.40;3.60;;;21.40;32.50;;;;;;5094022;28;20171;-75
2021/06/13 22:42:58;;;;;;;5.23;3.47;;;21.40;32.50;;;;;;5094385;28;20194;-75
2021/06/13 22:45:24;;;;;;;4.00;3.57;;;21.40;32.70;;;;;;5094926;28;20432;-75
2021/06/13 22:47:51;;;;;;;4.07;3.77;;;21.40;32.80;;;;;;5095537;28;20443;-76
2021/06/13 22:50:18;;;;;;;4.27;3.87;;;21.40;32.90;;;;;;5094550;28;20400;-76
2021/06/13 22:52:44;;;;;;;3.97;3.60;;;21.40;33.00;;;;;;5093939;28;20440;-75
2021/06/13 22:55:12;;;;;;;3.80;3.50;;;21.40;33.00;;;;;;5092517;28;20409;-75
2021/06/13 22:57:39;;;;;;;3.67;3.37;;;21.40;33.10;;;;;;5094006;28;20508;-75
2021/06/13 23:00:26;;;;;;;3.60;3.30;;;21.40;33.30;;;;;;5093771;28;20466;-76
2021/06/13 23:02:55;;;;;;;3.57;3.27;;;21.40;33.20;;;;;;5092468;28;20803;-75
2021/06/13 23:05:21;;;;;;;3.70;3.40;;;21.40;33.40;;;;;;5093325;28;20409;-75
2021/06/13 23:07:49;;;;;;;3.97;3.33;;;21.40;33.50;;;;;;5093763;28;20405;-75
2021/06/13 23:10:15;;;;;;;5.17;3.90;;;21.40;33.50;;;;;;5093662;28;20630;-75
2021/06/13 23:12:40;;;;;;;6.70;4.30;;;21.40;33.60;;;;;;5093446;28;20465;-75
2021/06/13 23:15:07;;;;;;;5.60;3.10;;;21.40;33.70;;;;;;5093378;28;20245;-75
2021/06/13 23:17:33;;;;;;;3.73;3.53;;;21.40;33.70;;;;;;5093434;28;20178;-76
2021/06/13 23:19:59;;;;;;;4.63;3.40;;;21.40;33.80;;;;;;5093324;28;20774;-75
2021/06/13 23:22:25;;;;;;;3.87;3.57;;;21.40;33.70;;;;;;5093312;28;20181;-75
2021/06/13 23:24:50;;;;;;;9.00;3.57;;;21.40;33.80;;;;;;5093218;28;20194;-75
2021/06/13 23:27:16;;;;;;;7.73;3.60;;;21.40;33.80;;;;;;5093172;28;20178;-75
2021/06/13 23:29:41;;;;;;;3.97;3.60;;;21.40;33.90;;;;;;5093161;28;20181;-75
2021/06/13 23:32:07;;;;;;;4.80;3.60;;;21.40;34.00;;;;;;5092901;28;20206;-75
2021/06/13 23:34:33;;;;;;;7.63;3.40;;;21.40;34.00;;;;;;5092819;28;20237;-75
2021/06/13 23:36:59;;;;;;;7.53;3.80;;;21.40;34.00;;;;;;5092878;28;20424;-76
2021/06/13 23:39:24;;;;;;;4.93;4.50;;;21.40;34.10;;;;;;5092878;28;20171;-76
2021/06/13 23:41:50;;;;;;;6.90;4.27;;;21.40;34.20;;;;;;5091624;28;20190;-76
2021/06/13 23:44:15;;;;;;;7.13;4.77;;;21.40;34.20;;;;;;5092598;28;20272;-76
2021/06/13 23:46:41;;;;;;;5.70;4.80;;;21.40;34.20;;;;;;5092233;28;20179;-76
2021/06/13 23:49:06;;;;;;;4.57;3.87;;;21.40;34.20;;;;;;5092807;28;20600;-75
2021/06/13 23:51:33;;;;;;;8.13;4.60;;;21.40;34.20;;;;;;5091980;28;20718;-76
2021/06/13 23:53:58;;;;;;;9.37;4.80;;;21.40;34.30;;;;;;5092666;28;20234;-75
2021/06/13 23:56:24;;;;;;;9.90;5.20;;;21.40;34.40;;;;;;5092530;28;20447;-76
2021/06/13 23:58:49;;;;;;;11.43;4.93;;;21.40;34.30;;;;;;5092740;28;20174;-76
